sensor_id;sensor_type;location;lat;lon;timestamp;temperature;humidity
17859;DHT22;35426;30.698;104.050;2022-11-20T00:01:17;15.80;99.90
17859;DHT22;35426;30.698;104.050;2022-11-20T00:03:53;15.80;99.90
17859;DHT22;35426;30.698;104.050;2022-11-20T00:06:30;15.80;99.90
17859;DHT22;35426;30.698;104.050;2022-11-20T00:09:04;15.70;99.90
17859;DHT22;35426;30.698;104.050;2022-11-20T00:11:39;15.50;99.90
17859;DHT22;35426;30.698;104.050;2022-11-20T00:14:27;15.50;99.90
17859;DHT22;35426;30.698;104.050;2022-11-20T00:17:08;15.60;99.90
17859;DHT22;35426;30.698;104.050;2022-11-20T00:19:47;15.60;99.90
17859;DHT22;35426;30.698;104.050;2022-11-20T00:22:24;15.60;99.90
17859;DHT22;35426;30.698;104.050;2022-11-20T00:24:59;15.50;99.90
17859;DHT22;35426;30.698;104.050;2022-11-20T00:27:44;15.70;99.90
17859;DHT22;35426;30.698;104.050;2022-11-20T00:30:19;15.60;99.90
17859;DHT22;35426;30.698;104.050;2022-11-20T00:32:55;15.60;99.90
17859;DHT22;35426;30.698;104.050;2022-11-20T00:35:31;15.70;99.90
17859;DHT22;35426;30.698;104.050;2022-11-20T00:38:10;15.70;99.90
17859;DHT22;35426;30.698;104.050;2022-11-20T00:40:45;15.70;99.90
17859;DHT22;35426;30.698;104.050;2022-11-20T00:43:25;15.70;99.90
17859;DHT22;35426;30.698;104.050;2022-11-20T00:46:02;15.70;99.90
17859;DHT22;35426;30.698;104.050;2022-11-20T00:48:40;15.70;99.90
17859;DHT22;35426;30.698;104.050;2022-11-20T00:51:18;15.70;99.90
17859;DHT22;35426;30.698;104.050;2022-11-20T00:53:56;15.70;99.90
17859;DHT22;35426;30.698;104.050;2022-11-20T00:56:43;15.60;99.90
17859;DHT22;35426;30.698;104.050;2022-11-20T00:59:23;15.60;99.90
17859;DHT22;35426;30.698;104.050;2022-11-20T01:01:57;15.60;99.90
17859;DHT22;35426;30.698;104.050;2022-11-20T01:04:32;15.60;99.90
17859;DHT22;35426;30.698;104.050;2022-11-20T01:07:06;15.50;99.90
17859;DHT22;35426;30.698;104.050;2022-11-20T01:09:43;15.60;99.90
17859;DHT22;35426;30.698;104.050;2022-11-20T01:12:18;15.80;99.90
17859;DHT22;35426;30.698;104.050;2022-11-20T01:14:53;15.80;99.90
17859;DHT22;35426;30.698;104.050;2022-11-20T01:17:28;15.90;99.90
17859;DHT22;35426;30.698;104.050;2022-11-20T01:20:03;15.90;99.90
17859;DHT22;35426;30.698;104.050;2022-11-20T01:22:38;15.90;99.90
17859;DHT22;35426;30.698;104.050;2022-11-20T01:25:15;15.90;99.90
17859;DHT22;35426;30.698;104.050;2022-11-20T01:27:49;15.90;99.90
17859;DHT22;35426;30.698;104.050;2022-11-20T01:30:23;15.90;99.90
17859;DHT22;35426;30.698;104.050;2022-11-20T01:32:58;16.00;99.90
17859;DHT22;35426;30.698;104.050;2022-11-20T01:35:32;16.00;99.90
17859;DHT22;35426;30.698;104.050;2022-11-20T01:38:07;16.00;99.90
17859;DHT22;35426;30.698;104.050;2022-11-20T01:40:44;15.90;99.90
17859;DHT22;35426;30.698;104.050;2022-11-20T01:43:23;15.90;99.90
17859;DHT22;35426;30.698;104.050;2022-11-20T01:46:17;16.00;99.90
17859;DHT22;35426;30.698;104.050;2022-11-20T01:48:53;16.10;99.90
17859;DHT22;35426;30.698;104.050;2022-11-20T01:51:35;16.10;99.90
17859;DHT22;35426;30.698;104.050;2022-11-20T01:54:21;16.10;99.90
17859;DHT22;35426;30.698;104.050;2022-11-20T01:57:00;16.10;99.90
17859;DHT22;35426;30.698;104.050;2022-11-20T01:59:41;16.20;99.90
17859;DHT22;35426;30.698;104.050;2022-11-20T02:02:22;16.00;99.90
17859;DHT22;35426;30.698;104.050;2022-11-20T02:05:00;16.10;99.90
17859;DHT22;35426;30.698;104.050;2022-11-20T02:07:35;16.00;99.90
17859;DHT22;35426;30.698;104.050;2022-11-20T02:10:09;16.00;99.90
17859;DHT22;35426;30.698;104.050;2022-11-20T02:12:48;16.10;99.90
17859;DHT22;35426;30.698;104.050;2022-11-20T02:15:48;16.10;99.90
17859;DHT22;35426;30.698;104.050;2022-11-20T02:18:29;16.20;99.90
17859;DHT22;35426;30.698;104.050;2022-11-20T02:21:07;16.10;99.90
17859;DHT22;35426;30.698;104.050;2022-11-20T02:24:00;16.20;99.90
17859;DHT22;35426;30.698;104.050;2022-11-20T02:26:39;16.10;99.90
17859;DHT22;35426;30.698;104.050;2022-11-20T02:29:21;16.10;99.90
17859;DHT22;35426;30.698;104.050;2022-11-20T02:31:59;16.30;99.90
17859;DHT22;35426;30.698;104.050;2022-11-20T02:34:34;16.30;99.90
17859;DHT22;35426;30.698;104.050;2022-11-20T02:37:09;16.30;99.90
17859;DHT22;35426;30.698;104.050;2022-11-20T02:40:07;16.40;99.90
17859;DHT22;35426;30.698;104.050;2022-11-20T02:42:43;16.50;99.90
17859;DHT22;35426;30.698;104.050;2022-11-20T02:45:17;16.50;99.90
17859;DHT22;35426;30.698;104.050;2022-11-20T02:47:51;16.70;99.90
17859;DHT22;35426;30.698;104.050;2022-11-20T02:50:26;16.90;99.90
17859;DHT22;35426;30.698;104.050;2022-11-20T02:53:01;16.90;99.90
17859;DHT22;35426;30.698;104.050;2022-11-20T02:55:42;16.90;99.90
17859;DHT22;35426;30.698;104.050;2022-11-20T02:58:17;16.90;99.90
17859;DHT22;35426;30.698;104.050;2022-11-20T03:00:53;16.80;99.90
17859;DHT22;35426;30.698;104.050;2022-11-20T03:03:27;16.90;99.90
17859;DHT22;35426;30.698;104.050;2022-11-20T03:06:01;16.90;99.90
17859;DHT22;35426;30.698;104.050;2022-11-20T03:08:35;17.20;99.90
17859;DHT22;35426;30.698;104.050;2022-11-20T03:11:12;17.30;99.90
17859;DHT22;35426;30.698;104.050;2022-11-20T03:13:47;17.20;99.90
17859;DHT22;35426;30.698;104.050;2022-11-20T03:16:22;17.30;99.90
17859;DHT22;35426;30.698;104.050;2022-11-20T03:18:57;17.10;99.90
17859;DHT22;35426;30.698;104.050;2022-11-20T03:21:33;17.10;99.90
17859;DHT22;35426;30.698;104.050;2022-11-20T03:24:11;17.00;99.90
17859;DHT22;35426;30.698;104.050;2022-11-20T03:26:49;17.10;99.90
17859;DHT22;35426;30.698;104.050;2022-11-20T03:29:23;17.00;99.90
17859;DHT22;35426;30.698;104.050;2022-11-20T03:31:57;16.90;99.90
17859;DHT22;35426;30.698;104.050;2022-11-20T03:34:34;17.10;99.90
17859;DHT22;35426;30.698;104.050;2022-11-20T03:37:09;17.20;99.90
17859;DHT22;35426;30.698;104.050;2022-11-20T03:39:44;17.40;99.90
17859;DHT22;35426;30.698;104.050;2022-11-20T03:42:39;17.40;99.90
17859;DHT22;35426;30.698;104.050;2022-11-20T03:45:20;17.50;99.90
17859;DHT22;35426;30.698;104.050;2022-11-20T03:47:55;17.40;99.90
17859;DHT22;35426;30.698;104.050;2022-11-20T03:50:36;17.40;99.90
17859;DHT22;35426;30.698;104.050;2022-11-20T03:53:11;17.50;99.90
17859;DHT22;35426;30.698;104.050;2022-11-20T03:55:46;17.60;99.90
17859;DHT22;35426;30.698;104.050;2022-11-20T03:58:26;17.80;99.90
17859;DHT22;35426;30.698;104.050;2022-11-20T04:01:06;17.80;99.90
17859;DHT22;35426;30.698;104.050;2022-11-20T04:03:42;17.80;99.90
17859;DHT22;35426;30.698;104.050;2022-11-20T04:06:18;17.90;99.90
17859;DHT22;35426;30.698;104.050;2022-11-20T04:09:12;18.00;99.90
17859;DHT22;35426;30.698;104.050;2022-11-20T04:11:47;18.00;99.90
17859;DHT22;35426;30.698;104.050;2022-11-20T04:14:24;18.20;99.90
17859;DHT22;35426;30.698;104.050;2022-11-20T04:16:58;18.20;99.90
17859;DHT22;35426;30.698;104.050;2022-11-20T04:19:33;18.30;99.90
17859;DHT22;35426;30.698;104.050;2022-11-20T04:22:08;18.60;99.90
17859;DHT22;35426;30.698;104.050;2022-11-20T04:24:43;18.90;99.90
17859;DHT22;35426;30.698;104.050;2022-11-20T04:27:17;19.30;99.90
17859;DHT22;35426;30.698;104.050;2022-11-20T04:29:54;19.20;99.90
17859;DHT22;35426;30.698;104.050;2022-11-20T04:32:28;19.50;99.90
17859;DHT22;35426;30.698;104.050;2022-11-20T04:35:07;19.90;99.90
17859;DHT22;35426;30.698;104.050;2022-11-20T04:37:44;19.40;99.90
17859;DHT22;35426;30.698;104.050;2022-11-20T04:40:25;19.40;99.90
17859;DHT22;35426;30.698;104.050;2022-11-20T04:43:09;19.40;99.90
17859;DHT22;35426;30.698;104.050;2022-11-20T04:45:55;19.30;99.90
17859;DHT22;35426;30.698;104.050;2022-11-20T04:48:31;19.40;99.90
17859;DHT22;35426;30.698;104.050;2022-11-20T04:51:05;19.30;99.90
17859;DHT22;35426;30.698;104.050;2022-11-20T04:53:46;19.50;99.90
17859;DHT22;35426;30.698;104.050;2022-11-20T04:56:21;19.80;99.90
17859;DHT22;35426;30.698;104.050;2022-11-20T04:58:56;20.10;99.90
17859;DHT22;35426;30.698;104.050;2022-11-20T05:01:36;19.80;99.90
17859;DHT22;35426;30.698;104.050;2022-11-20T05:04:18;19.90;99.90
17859;DHT22;35426;30.698;104.050;2022-11-20T05:06:52;19.80;99.90
17859;DHT22;35426;30.698;104.050;2022-11-20T05:09:30;19.60;99.90
17859;DHT22;35426;30.698;104.050;2022-11-20T05:12:06;19.80;99.90
17859;DHT22;35426;30.698;104.050;2022-11-20T05:14:52;19.70;99.90
17859;DHT22;35426;30.698;104.050;2022-11-20T05:17:32;19.60;99.90
17859;DHT22;35426;30.698;104.050;2022-11-20T05:20:07;20.00;99.90
17859;DHT22;35426;30.698;104.050;2022-11-20T05:22:43;20.10;99.90
17859;DHT22;35426;30.698;104.050;2022-11-20T05:25:18;20.00;99.90
17859;DHT22;35426;30.698;104.050;2022-11-20T05:27:54;19.40;99.90
17859;DHT22;35426;30.698;104.050;2022-11-20T05:30:28;19.40;99.90
17859;DHT22;35426;30.698;104.050;2022-11-20T05:33:05;19.40;99.90
17859;DHT22;35426;30.698;104.050;2022-11-20T05:35:40;19.30;99.90
17859;DHT22;35426;30.698;104.050;2022-11-20T05:38:14;19.20;99.90
17859;DHT22;35426;30.698;104.050;2022-11-20T05:40:49;19.10;99.90
17859;DHT22;35426;30.698;104.050;2022-11-20T05:43:27;19.20;99.90
17859;DHT22;35426;30.698;104.050;2022-11-20T05:46:01;19.40;99.90
17859;DHT22;35426;30.698;104.050;2022-11-20T05:48:42;19.40;99.90
17859;DHT22;35426;30.698;104.050;2022-11-20T05:51:19;19.30;99.90
17859;DHT22;35426;30.698;104.050;2022-11-20T05:53:54;19.50;99.90
17859;DHT22;35426;30.698;104.050;2022-11-20T05:56:32;19.50;99.90
17859;DHT22;35426;30.698;104.050;2022-11-20T05:59:06;19.40;99.90
17859;DHT22;35426;30.698;104.050;2022-11-20T06:01:41;19.40;99.90
17859;DHT22;35426;30.698;104.050;2022-11-20T06:04:17;19.40;99.90
17859;DHT22;35426;30.698;104.050;2022-11-20T06:06:52;19.20;99.90
17859;DHT22;35426;30.698;104.050;2022-11-20T06:09:30;19.00;99.90
17859;DHT22;35426;30.698;104.050;2022-11-20T06:12:05;18.90;99.90
17859;DHT22;35426;30.698;104.050;2022-11-20T06:14:43;18.90;99.90
17859;DHT22;35426;30.698;104.050;2022-11-20T06:17:19;19.20;99.90
17859;DHT22;35426;30.698;104.050;2022-11-20T06:20:16;19.10;99.90
17859;DHT22;35426;30.698;104.050;2022-11-20T06:23:11;18.90;99.90
17859;DHT22;35426;30.698;104.050;2022-11-20T06:25:46;19.00;99.90
17859;DHT22;35426;30.698;104.050;2022-11-20T06:28:21;19.00;99.90
17859;DHT22;35426;30.698;104.050;2022-11-20T06:30:56;19.10;99.90
17859;DHT22;35426;30.698;104.050;2022-11-20T06:33:30;19.10;99.90
17859;DHT22;35426;30.698;104.050;2022-11-20T06:36:22;19.20;99.90
17859;DHT22;35426;30.698;104.050;2022-11-20T06:39:00;19.10;99.90
17859;DHT22;35426;30.698;104.050;2022-11-20T06:41:35;19.40;99.90
17859;DHT22;35426;30.698;104.050;2022-11-20T06:44:09;19.40;99.90
17859;DHT22;35426;30.698;104.050;2022-11-20T06:46:43;19.00;99.90
17859;DHT22;35426;30.698;104.050;2022-11-20T06:49:21;18.80;99.90
17859;DHT22;35426;30.698;104.050;2022-11-20T06:52:01;18.90;99.90
17859;DHT22;35426;30.698;104.050;2022-11-20T06:54:35;19.00;99.90
17859;DHT22;35426;30.698;104.050;2022-11-20T06:57:10;19.10;99.90
17859;DHT22;35426;30.698;104.050;2022-11-20T06:59:45;19.00;99.90
17859;DHT22;35426;30.698;104.050;2022-11-20T07:02:29;18.90;99.90
17859;DHT22;35426;30.698;104.050;2022-11-20T07:05:04;18.70;99.90
17859;DHT22;35426;30.698;104.050;2022-11-20T07:07:40;18.70;99.90
17859;DHT22;35426;30.698;104.050;2022-11-20T07:10:15;18.40;99.90
17859;DHT22;35426;30.698;104.050;2022-11-20T07:12:50;18.30;99.90
17859;DHT22;35426;30.698;104.050;2022-11-20T07:15:26;18.40;99.90
17859;DHT22;35426;30.698;104.050;2022-11-20T07:18:04;18.60;99.90
17859;DHT22;35426;30.698;104.050;2022-11-20T07:20:38;18.40;99.90
17859;DHT22;35426;30.698;104.050;2022-11-20T07:23:14;18.10;99.90
17859;DHT22;35426;30.698;104.050;2022-11-20T07:25:48;18.00;99.90
17859;DHT22;35426;30.698;104.050;2022-11-20T07:28:25;17.90;99.90
17859;DHT22;35426;30.698;104.050;2022-11-20T07:31:00;17.90;99.90
17859;DHT22;35426;30.698;104.050;2022-11-20T07:33:34;17.90;99.90
17859;DHT22;35426;30.698;104.050;2022-11-20T07:36:13;17.90;99.90
17859;DHT22;35426;30.698;104.050;2022-11-20T07:38:49;17.80;99.90
17859;DHT22;35426;30.698;104.050;2022-11-20T07:41:23;17.80;99.90
17859;DHT22;35426;30.698;104.050;2022-11-20T07:43:59;18.00;99.90
17859;DHT22;35426;30.698;104.050;2022-11-20T07:46:37;18.10;99.90
17859;DHT22;35426;30.698;104.050;2022-11-20T07:49:12;17.90;99.90
17859;DHT22;35426;30.698;104.050;2022-11-20T07:51:46;17.80;99.90
17859;DHT22;35426;30.698;104.050;2022-11-20T07:54:33;17.70;99.90
17859;DHT22;35426;30.698;104.050;2022-11-20T07:57:07;17.80;99.90
17859;DHT22;35426;30.698;104.050;2022-11-20T07:59:57;17.80;99.90
17859;DHT22;35426;30.698;104.050;2022-11-20T08:02:40;17.90;99.90
17859;DHT22;35426;30.698;104.050;2022-11-20T08:05:15;17.90;99.90
17859;DHT22;35426;30.698;104.050;2022-11-20T08:07:50;17.70;99.90
17859;DHT22;35426;30.698;104.050;2022-11-20T08:10:27;17.70;99.90
17859;DHT22;35426;30.698;104.050;2022-11-20T08:13:01;17.60;99.90
17859;DHT22;35426;30.698;104.050;2022-11-20T08:15:51;17.70;99.90
17859;DHT22;35426;30.698;104.050;2022-11-20T08:18:26;17.60;99.90
17859;DHT22;35426;30.698;104.050;2022-11-20T08:21:06;17.60;99.90
17859;DHT22;35426;30.698;104.050;2022-11-20T08:23:40;17.60;99.90
17859;DHT22;35426;30.698;104.050;2022-11-20T08:26:27;17.60;99.90
17859;DHT22;35426;30.698;104.050;2022-11-20T08:29:02;17.60;99.90
17859;DHT22;35426;30.698;104.050;2022-11-20T08:31:37;17.50;99.90
17859;DHT22;35426;30.698;104.050;2022-11-20T08:34:12;17.50;99.90
17859;DHT22;35426;30.698;104.050;2022-11-20T08:36:47;17.50;99.90
17859;DHT22;35426;30.698;104.050;2022-11-20T08:39:34;17.50;99.90
17859;DHT22;35426;30.698;104.050;2022-11-20T08:42:11;17.40;99.90
17859;DHT22;35426;30.698;104.050;2022-11-20T08:44:45;17.40;99.90
17859;DHT22;35426;30.698;104.050;2022-11-20T08:47:20;17.40;99.90
17859;DHT22;35426;30.698;104.050;2022-11-20T08:49:59;17.30;99.90
17859;DHT22;35426;30.698;104.050;2022-11-20T08:52:34;17.30;99.90
17859;DHT22;35426;30.698;104.050;2022-11-20T08:55:09;17.30;99.90
17859;DHT22;35426;30.698;104.050;2022-11-20T08:57:45;17.30;99.90
17859;DHT22;35426;30.698;104.050;2022-11-20T09:00:20;17.20;99.90
17859;DHT22;35426;30.698;104.050;2022-11-20T09:02:54;17.20;99.90
17859;DHT22;35426;30.698;104.050;2022-11-20T09:05:35;17.10;99.90
17859;DHT22;35426;30.698;104.050;2022-11-20T09:08:10;17.10;99.90
17859;DHT22;35426;30.698;104.050;2022-11-20T09:10:52;17.10;99.90
17859;DHT22;35426;30.698;104.050;2022-11-20T09:13:29;17.10;99.90
17859;DHT22;35426;30.698;104.050;2022-11-20T09:16:06;17.10;99.90
17859;DHT22;35426;30.698;104.050;2022-11-20T09:18:42;17.10;99.90
17859;DHT22;35426;30.698;104.050;2022-11-20T09:21:31;17.10;99.90
17859;DHT22;35426;30.698;104.050;2022-11-20T09:24:06;17.10;99.90
17859;DHT22;35426;30.698;104.050;2022-11-20T09:26:41;17.10;99.90
17859;DHT22;35426;30.698;104.050;2022-11-20T09:29:17;17.00;99.90
17859;DHT22;35426;30.698;104.050;2022-11-20T09:31:52;17.00;99.90
17859;DHT22;35426;30.698;104.050;2022-11-20T09:34:27;17.00;99.90
17859;DHT22;35426;30.698;104.050;2022-11-20T09:37:02;17.00;99.90
17859;DHT22;35426;30.698;104.050;2022-11-20T09:39:41;17.00;99.90
17859;DHT22;35426;30.698;104.050;2022-11-20T09:42:29;16.90;99.90
17859;DHT22;35426;30.698;104.050;2022-11-20T09:45:39;16.90;99.90
17859;DHT22;35426;30.698;104.050;2022-11-20T09:48:54;16.80;99.90
17859;DHT22;35426;30.698;104.050;2022-11-20T09:51:41;16.90;99.90
17859;DHT22;35426;30.698;104.050;2022-11-20T09:54:19;16.80;99.90
17859;DHT22;35426;30.698;104.050;2022-11-20T09:56:56;16.70;99.90
17859;DHT22;35426;30.698;104.050;2022-11-20T09:59:45;16.70;99.90
17859;DHT22;35426;30.698;104.050;2022-11-20T10:02:27;16.80;99.90
17859;DHT22;35426;30.698;104.050;2022-11-20T10:05:06;16.80;99.90
17859;DHT22;35426;30.698;104.050;2022-11-20T10:07:47;16.70;99.90
17859;DHT22;35426;30.698;104.050;2022-11-20T10:10:28;16.70;99.90
17859;DHT22;35426;30.698;104.050;2022-11-20T10:13:17;16.60;99.90
17859;DHT22;35426;30.698;104.050;2022-11-20T10:16:02;16.60;99.90
17859;DHT22;35426;30.698;104.050;2022-11-20T10:18:51;16.50;99.90
17859;DHT22;35426;30.698;104.050;2022-11-20T10:21:34;16.50;99.90
17859;DHT22;35426;30.698;104.050;2022-11-20T10:24:42;16.50;99.90
17859;DHT22;35426;30.698;104.050;2022-11-20T10:27:32;16.50;99.90
17859;DHT22;35426;30.698;104.050;2022-11-20T10:30:11;16.40;99.90
17859;DHT22;35426;30.698;104.050;2022-11-20T10:32:49;16.40;99.90
17859;DHT22;35426;30.698;104.050;2022-11-20T10:35:32;16.40;99.90
17859;DHT22;35426;30.698;104.050;2022-11-20T10:38:11;16.30;99.90
17859;DHT22;35426;30.698;104.050;2022-11-20T10:40:55;16.40;99.90
17859;DHT22;35426;30.698;104.050;2022-11-20T10:46:47;16.20;99.90
17859;DHT22;35426;30.698;104.050;2022-11-20T10:49:22;16.20;99.90
17859;DHT22;35426;30.698;104.050;2022-11-20T10:52:06;16.20;99.90
17859;DHT22;35426;30.698;104.050;2022-11-20T10:54:47;16.20;99.90
17859;DHT22;35426;30.698;104.050;2022-11-20T10:57:42;16.20;99.90
17859;DHT22;35426;30.698;104.050;2022-11-20T11:00:24;16.10;99.90
17859;DHT22;35426;30.698;104.050;2022-11-20T11:03:19;16.10;99.90
17859;DHT22;35426;30.698;104.050;2022-11-20T11:05:59;16.10;99.90
17859;DHT22;35426;30.698;104.050;2022-11-20T11:08:39;16.10;99.90
17859;DHT22;35426;30.698;104.050;2022-11-20T11:11:21;16.00;99.90
17859;DHT22;35426;30.698;104.050;2022-11-20T11:14:05;16.00;99.90
17859;DHT22;35426;30.698;104.050;2022-11-20T11:16:50;15.90;99.90
17859;DHT22;35426;30.698;104.050;2022-11-20T11:19:28;16.00;99.90
17859;DHT22;35426;30.698;104.050;2022-11-20T11:22:15;15.90;99.90
17859;DHT22;35426;30.698;104.050;2022-11-20T11:25:01;15.90;99.90
17859;DHT22;35426;30.698;104.050;2022-11-20T11:27:47;15.90;99.90
17859;DHT22;35426;30.698;104.050;2022-11-20T11:30:27;15.90;99.90
17859;DHT22;35426;30.698;104.050;2022-11-20T11:33:06;15.90;99.90
17859;DHT22;35426;30.698;104.050;2022-11-20T11:35:53;15.90;99.90
17859;DHT22;35426;30.698;104.050;2022-11-20T11:38:34;15.90;99.90
17859;DHT22;35426;30.698;104.050;2022-11-20T11:41:15;15.90;99.90
17859;DHT22;35426;30.698;104.050;2022-11-20T11:43:56;15.90;99.90
17859;DHT22;35426;30.698;104.050;2022-11-20T11:46:54;15.80;99.90
17859;DHT22;35426;30.698;104.050;2022-11-20T11:49:29;15.80;99.90
17859;DHT22;35426;30.698;104.050;2022-11-20T11:52:12;15.70;99.90
17859;DHT22;35426;30.698;104.050;2022-11-20T11:54:51;15.90;99.90
17859;DHT22;35426;30.698;104.050;2022-11-20T11:57:34;15.90;99.90
17859;DHT22;35426;30.698;104.050;2022-11-20T12:00:16;15.90;99.90
17859;DHT22;35426;30.698;104.050;2022-11-20T12:03:00;15.90;99.90
17859;DHT22;35426;30.698;104.050;2022-11-20T12:05:44;15.90;99.90
17859;DHT22;35426;30.698;104.050;2022-11-20T12:08:23;15.80;99.90
17859;DHT22;35426;30.698;104.050;2022-11-20T12:11:00;15.70;99.90
17859;DHT22;35426;30.698;104.050;2022-11-20T12:13:44;15.80;99.90
17859;DHT22;35426;30.698;104.050;2022-11-20T12:16:21;15.80;99.90
17859;DHT22;35426;30.698;104.050;2022-11-20T12:18:57;15.80;99.90
17859;DHT22;35426;30.698;104.050;2022-11-20T12:21:38;15.80;99.90
17859;DHT22;35426;30.698;104.050;2022-11-20T12:24:39;15.80;99.90
17859;DHT22;35426;30.698;104.050;2022-11-20T12:30:21;15.70;99.90
17859;DHT22;35426;30.698;104.050;2022-11-20T12:33:22;15.70;99.90
17859;DHT22;35426;30.698;104.050;2022-11-20T12:36:17;15.70;99.90
17859;DHT22;35426;30.698;104.050;2022-11-20T12:39:09;15.60;99.90
17859;DHT22;35426;30.698;104.050;2022-11-20T12:42:07;15.70;99.90
17859;DHT22;35426;30.698;104.050;2022-11-20T12:45:59;15.70;99.90
17859;DHT22;35426;30.698;104.050;2022-11-20T12:49:01;15.60;99.90
17859;DHT22;35426;30.698;104.050;2022-11-20T12:52:06;15.60;99.90
17859;DHT22;35426;30.698;104.050;2022-11-20T12:58:20;15.60;99.90
17859;DHT22;35426;30.698;104.050;2022-11-20T13:01:09;15.60;99.90
17859;DHT22;35426;30.698;104.050;2022-11-20T13:04:23;15.50;99.90
17859;DHT22;35426;30.698;104.050;2022-11-20T13:07:09;15.50;99.90
17859;DHT22;35426;30.698;104.050;2022-11-20T13:09:46;15.50;99.90
17859;DHT22;35426;30.698;104.050;2022-11-20T13:12:28;15.50;99.90
17859;DHT22;35426;30.698;104.050;2022-11-20T13:15:15;15.50;99.90
17859;DHT22;35426;30.698;104.050;2022-11-20T13:17:57;15.50;99.90
17859;DHT22;35426;30.698;104.050;2022-11-20T13:20:34;15.50;99.90
17859;DHT22;35426;30.698;104.050;2022-11-20T13:23:22;15.50;99.90
17859;DHT22;35426;30.698;104.050;2022-11-20T13:26:17;15.40;99.90
17859;DHT22;35426;30.698;104.050;2022-11-20T13:29:05;15.50;99.90
17859;DHT22;35426;30.698;104.050;2022-11-20T13:31:45;15.40;99.90
17859;DHT22;35426;30.698;104.050;2022-11-20T13:34:30;15.50;99.90
17859;DHT22;35426;30.698;104.050;2022-11-20T13:40:12;15.50;99.90
17859;DHT22;35426;30.698;104.050;2022-11-20T13:43:01;15.40;99.90
17859;DHT22;35426;30.698;104.050;2022-11-20T13:45:36;15.40;99.90
17859;DHT22;35426;30.698;104.050;2022-11-20T13:48:21;15.40;99.90
17859;DHT22;35426;30.698;104.050;2022-11-20T13:51:21;15.40;99.90
17859;DHT22;35426;30.698;104.050;2022-11-20T13:54:20;15.40;99.90
17859;DHT22;35426;30.698;104.050;2022-11-20T13:57:04;15.40;99.90
17859;DHT22;35426;30.698;104.050;2022-11-20T13:59:51;15.30;99.90
17859;DHT22;35426;30.698;104.050;2022-11-20T14:02:38;15.30;99.90
17859;DHT22;35426;30.698;104.050;2022-11-20T14:05:20;15.40;99.90
17859;DHT22;35426;30.698;104.050;2022-11-20T14:07:58;15.40;99.90
17859;DHT22;35426;30.698;104.050;2022-11-20T14:10:33;15.40;99.90
17859;DHT22;35426;30.698;104.050;2022-11-20T14:13:19;15.40;99.90
17859;DHT22;35426;30.698;104.050;2022-11-20T14:15:58;15.40;99.90
17859;DHT22;35426;30.698;104.050;2022-11-20T14:18:36;15.40;99.90
17859;DHT22;35426;30.698;104.050;2022-11-20T14:21:26;15.30;99.90
17859;DHT22;35426;30.698;104.050;2022-11-20T14:24:10;15.40;99.90
17859;DHT22;35426;30.698;104.050;2022-11-20T14:26:46;15.40;99.90
17859;DHT22;35426;30.698;104.050;2022-11-20T14:29:28;15.40;99.90
17859;DHT22;35426;30.698;104.050;2022-11-20T14:32:06;15.40;99.90
17859;DHT22;35426;30.698;104.050;2022-11-20T14:34:41;15.40;99.90
17859;DHT22;35426;30.698;104.050;2022-11-20T14:37:21;15.40;99.90
17859;DHT22;35426;30.698;104.050;2022-11-20T14:40:02;15.40;99.90
17859;DHT22;35426;30.698;104.050;2022-11-20T14:42:44;15.40;99.90
17859;DHT22;35426;30.698;104.050;2022-11-20T14:45:22;15.40;99.90
17859;DHT22;35426;30.698;104.050;2022-11-20T14:47:59;15.40;99.90
17859;DHT22;35426;30.698;104.050;2022-11-20T14:50:37;15.50;99.90
17859;DHT22;35426;30.698;104.050;2022-11-20T14:53:23;15.50;99.90
17859;DHT22;35426;30.698;104.050;2022-11-20T14:56:02;15.50;99.90
17859;DHT22;35426;30.698;104.050;2022-11-20T14:58:37;15.50;99.90
17859;DHT22;35426;30.698;104.050;2022-11-20T15:01:13;15.50;99.90
17859;DHT22;35426;30.698;104.050;2022-11-20T15:04:04;15.50;99.90
17859;DHT22;35426;30.698;104.050;2022-11-20T15:06:50;15.50;99.90
17859;DHT22;35426;30.698;104.050;2022-11-20T15:09:28;15.50;99.90
17859;DHT22;35426;30.698;104.050;2022-11-20T15:12:05;15.50;99.90
17859;DHT22;35426;30.698;104.050;2022-11-20T15:14:40;15.50;99.90
17859;DHT22;35426;30.698;104.050;2022-11-20T15:17:15;15.60;99.90
17859;DHT22;35426;30.698;104.050;2022-11-20T15:19:50;15.70;99.90
17859;DHT22;35426;30.698;104.050;2022-11-20T15:22:25;15.60;99.90
17859;DHT22;35426;30.698;104.050;2022-11-20T15:25:00;15.70;99.90
17859;DHT22;35426;30.698;104.050;2022-11-20T15:27:37;15.70;99.90
17859;DHT22;35426;30.698;104.050;2022-11-20T15:30:20;15.70;99.90
17859;DHT22;35426;30.698;104.050;2022-11-20T15:32:54;15.60;99.90
17859;DHT22;35426;30.698;104.050;2022-11-20T15:35:29;15.50;99.90
17859;DHT22;35426;30.698;104.050;2022-11-20T15:38:04;15.60;99.90
17859;DHT22;35426;30.698;104.050;2022-11-20T15:40:42;15.60;99.90
17859;DHT22;35426;30.698;104.050;2022-11-20T15:43:19;15.50;99.90
17859;DHT22;35426;30.698;104.050;2022-11-20T15:45:58;15.50;99.90
17859;DHT22;35426;30.698;104.050;2022-11-20T15:48:39;15.60;99.90
17859;DHT22;35426;30.698;104.050;2022-11-20T15:51:24;15.60;99.90
17859;DHT22;35426;30.698;104.050;2022-11-20T15:54:00;15.70;99.90
17859;DHT22;35426;30.698;104.050;2022-11-20T15:56:36;15.60;99.90
17859;DHT22;35426;30.698;104.050;2022-11-20T15:59:13;15.60;99.90
17859;DHT22;35426;30.698;104.050;2022-11-20T16:01:48;15.70;99.90
17859;DHT22;35426;30.698;104.050;2022-11-20T16:04:25;15.70;99.90
17859;DHT22;35426;30.698;104.050;2022-11-20T16:06:59;15.70;99.90
17859;DHT22;35426;30.698;104.050;2022-11-20T16:09:34;15.70;99.90
17859;DHT22;35426;30.698;104.050;2022-11-20T16:12:12;15.80;99.90
17859;DHT22;35426;30.698;104.050;2022-11-20T16:15:14;15.70;99.90
17859;DHT22;35426;30.698;104.050;2022-11-20T16:18:06;15.70;99.90
17859;DHT22;35426;30.698;104.050;2022-11-20T16:20:42;15.70;99.90
17859;DHT22;35426;30.698;104.050;2022-11-20T16:23:19;15.70;99.90
17859;DHT22;35426;30.698;104.050;2022-11-20T16:25:53;15.70;99.90
17859;DHT22;35426;30.698;104.050;2022-11-20T16:28:29;15.70;99.90
17859;DHT22;35426;30.698;104.050;2022-11-20T16:31:12;15.70;99.90
17859;DHT22;35426;30.698;104.050;2022-11-20T16:33:50;15.70;99.90